Time;durP1;ratioP1;P1;durP2;ratioP2;P2;SDS_P1;SDS_P2;PMS_P1;PMS_P2;Temp;Humidity;BMP_temperature;BMP_pressure;BME280_temperature;BME280_humidity;BME280_pressure;Samples;Min_cycle;Max_cycle;Signal;HPM_P1;HPM_P2
2023/08/08 00:01:23;;;;;;;1.17;0.80;;;16.70;99.90;;;;;;7392251;19;20146;-83
2023/08/08 00:03:49;;;;;;;1.85;1.05;;;16.70;99.90;;;;;;7391428;19;20491;-80
2023/08/08 00:06:15;;;;;;;0.93;0.77;;;16.70;99.90;;;;;;7389773;19;20177;-83
2023/08/08 00:08:41;;;;;;;1.60;1.00;;;16.60;99.90;;;;;;7393328;19;20601;-83
2023/08/08 00:11:07;;;;;;;1.08;0.88;;;16.60;99.90;;;;;;7375739;19;20131;-82
2023/08/08 00:13:32;;;;;;;1.27;0.98;;;16.60;99.90;;;;;;7394579;19;20623;-82
2023/08/08 00:15:58;;;;;;;2.17;1.23;;;16.70;99.90;;;;;;7393257;19;20156;-82
2023/08/08 00:18:24;;;;;;;1.85;0.80;;;16.60;99.90;;;;;;7389643;19;20696;-84
2023/08/08 00:20:50;;;;;;;1.25;1.00;;;16.70;99.90;;;;;;7391304;19;20238;-78
2023/08/08 00:23:16;;;;;;;1.00;0.88;;;16.70;99.90;;;;;;7391150;19;20662;-79
2023/08/08 00:25:41;;;;;;;0.93;0.80;;;16.60;99.90;;;;;;7391541;19;20607;-82
2023/08/08 00:28:07;;;;;;;2.17;0.90;;;16.70;99.90;;;;;;7389410;19;20133;-83
2023/08/08 00:30:33;;;;;;;2.17;0.95;;;16.80;99.90;;;;;;7390249;19;20135;-84
2023/08/08 00:32:58;;;;;;;1.02;0.73;;;16.70;99.90;;;;;;7392198;19;20507;-81
2023/08/08 00:35:24;;;;;;;1.63;1.00;;;16.70;99.90;;;;;;7392668;19;20134;-84
2023/08/08 00:37:50;;;;;;;2.35;1.00;;;16.80;99.90;;;;;;7390068;19;20162;-84
2023/08/08 00:40:16;;;;;;;2.13;0.80;;;16.70;99.90;;;;;;7387619;19;20211;-83
2023/08/08 00:42:41;;;;;;;1.13;0.90;;;16.70;99.90;;;;;;7389648;19;20139;-83
2023/08/08 00:45:08;;;;;;;2.30;0.90;;;16.80;99.90;;;;;;7388661;19;20138;-84
2023/08/08 00:47:34;;;;;;;1.15;1.00;;;16.70;99.90;;;;;;7391357;19;20131;-83
2023/08/08 00:50:03;;;;;;;3.25;1.00;;;16.60;99.90;;;;;;7392270;19;20139;-83
2023/08/08 00:52:30;;;;;;;1.50;1.38;;;16.60;99.90;;;;;;7391953;19;20229;-83
2023/08/08 00:54:56;;;;;;;1.60;1.05;;;16.60;99.90;;;;;;7389654;19;20142;-81
2023/08/08 00:57:22;;;;;;;1.63;0.98;;;16.50;99.90;;;;;;7392678;19;20157;-81
2023/08/08 00:59:47;;;;;;;1.45;0.82;;;16.40;99.90;;;;;;7388679;19;20135;-82
2023/08/08 01:02:13;;;;;;;1.23;1.00;;;16.60;99.90;;;;;;7391861;19;20173;-82
2023/08/08 01:04:40;;;;;;;1.52;0.68;;;16.50;99.90;;;;;;7389139;19;20610;-82
2023/08/08 01:07:22;;;;;;;1.63;0.70;;;16.60;99.90;;;;;;7390958;19;20467;-83
2023/08/08 01:09:52;;;;;;;1.45;1.05;;;16.60;99.90;;;;;;7389535;19;20176;-82
2023/08/08 01:12:18;;;;;;;1.15;0.88;;;16.50;99.90;;;;;;7389683;19;20225;-85
2023/08/08 01:14:45;;;;;;;2.05;0.80;;;16.60;99.90;;;;;;7389356;19;20538;-80
2023/08/08 01:17:12;;;;;;;2.95;1.08;;;16.50;99.90;;;;;;7387485;19;20126;-81
2023/08/08 01:19:39;;;;;;;1.30;0.93;;;16.30;99.90;;;;;;7386518;19;20147;-79
2023/08/08 01:22:07;;;;;;;1.92;1.15;;;16.20;99.90;;;;;;7389315;19;20148;-81
2023/08/08 01:24:36;;;;;;;1.05;0.90;;;16.10;99.90;;;;;;7393294;19;20139;-81
2023/08/08 01:27:04;;;;;;;1.30;1.05;;;16.00;99.90;;;;;;7395344;19;20142;-81
2023/08/08 01:29:30;;;;;;;2.33;1.08;;;16.00;99.90;;;;;;7395335;19;20565;-83
2023/08/08 01:31:55;;;;;;;3.72;1.55;;;16.10;99.90;;;;;;7396628;19;20134;-84
2023/08/08 01:34:22;;;;;;;1.48;0.93;;;16.20;99.90;;;;;;7394274;19;20141;-82
2023/08/08 01:37:06;;;;;;;1.02;0.93;;;16.30;99.90;;;;;;7395903;19;20503;-83
2023/08/08 01:39:32;;;;;;;1.40;0.93;;;16.40;99.90;;;;;;7393144;19;20182;-81
2023/08/08 01:42:00;;;;;;;2.25;0.93;;;16.40;99.90;;;;;;7394876;19;20139;-83
2023/08/08 01:44:28;;;;;;;1.05;0.80;;;16.50;99.90;;;;;;7396164;19;20162;-82
2023/08/08 01:46:54;;;;;;;0.90;0.85;;;16.60;99.90;;;;;;7396290;19;20165;-83
2023/08/08 01:49:20;;;;;;;1.40;0.80;;;16.50;99.90;;;;;;7394826;19;20598;-82
2023/08/08 01:51:46;;;;;;;1.00;0.88;;;16.30;99.90;;;;;;7394352;19;20142;-82
2023/08/08 01:54:12;;;;;;;1.00;0.90;;;16.40;99.90;;;;;;7395473;19;20234;-84
2023/08/08 01:56:38;;;;;;;1.38;0.77;;;16.30;99.90;;;;;;7395165;19;20515;-82
2023/08/08 01:59:03;;;;;;;1.27;0.98;;;16.20;99.90;;;;;;7396343;19;20141;-82
2023/08/08 02:01:29;;;;;;;2.35;1.17;;;16.20;99.90;;;;;;7394734;19;20155;-85
2023/08/08 02:03:55;;;;;;;1.25;0.85;;;16.00;99.90;;;;;;7396438;19;20706;-85
2023/08/08 02:06:20;;;;;;;2.78;1.10;;;16.00;99.90;;;;;;7394359;19;20141;-84
2023/08/08 02:08:46;;;;;;;1.20;0.77;;;16.10;99.90;;;;;;7396960;19;20139;-80
2023/08/08 02:11:12;;;;;;;1.65;1.15;;;16.20;99.90;;;;;;7394429;19;20494;-82
2023/08/08 02:13:38;;;;;;;1.67;1.10;;;16.20;99.90;;;;;;7393933;19;20146;-83
2023/08/08 02:16:03;;;;;;;1.00;0.90;;;16.30;99.90;;;;;;7393401;19;20474;-81
2023/08/08 02:18:29;;;;;;;1.20;0.90;;;16.40;99.90;;;;;;7392703;19;20643;-83
2023/08/08 02:20:55;;;;;;;1.30;0.98;;;16.40;99.90;;;;;;7393030;19;20139;-83
2023/08/08 02:23:21;;;;;;;1.48;1.00;;;16.40;99.90;;;;;;7395291;19;20128;-82
2023/08/08 02:25:46;;;;;;;1.02;0.85;;;16.40;99.90;;;;;;7394919;19;20483;-82
2023/08/08 02:28:12;;;;;;;1.20;0.85;;;16.20;99.90;;;;;;7395500;19;20234;-83
2023/08/08 02:30:38;;;;;;;1.17;0.93;;;16.20;99.90;;;;;;7395162;19;20150;-82
2023/08/08 02:33:04;;;;;;;1.67;0.90;;;16.20;99.90;;;;;;7397338;19;20154;-81
2023/08/08 02:35:30;;;;;;;1.80;0.80;;;16.30;99.90;;;;;;7396839;19;20217;-84
2023/08/08 02:37:55;;;;;;;1.55;0.90;;;16.20;99.90;;;;;;7395716;19;20643;-82
2023/08/08 02:40:23;;;;;;;1.77;1.00;;;16.20;99.90;;;;;;7394998;19;20157;-84
2023/08/08 02:42:50;;;;;;;1.77;1.00;;;16.30;99.90;;;;;;7394738;19;20130;-82
2023/08/08 02:45:15;;;;;;;1.30;1.10;;;16.20;99.90;;;;;;7395522;19;20138;-84
2023/08/08 02:47:41;;;;;;;0.95;0.82;;;16.10;99.90;;;;;;7391486;19;20157;-83
2023/08/08 02:50:07;;;;;;;1.33;0.98;;;16.00;99.90;;;;;;7395618;19;20558;-84
2023/08/08 02:52:33;;;;;;;1.55;1.15;;;16.00;99.90;;;;;;7393722;19;20162;-84
2023/08/08 02:54:59;;;;;;;0.80;0.80;;;16.10;99.90;;;;;;7394103;19;20165;-82
2023/08/08 02:57:26;;;;;;;1.42;0.90;;;16.10;99.90;;;;;;7392547;19;20164;-84
2023/08/08 02:59:52;;;;;;;1.60;1.00;;;16.20;99.90;;;;;;7389119;19;20142;-82
2023/08/08 03:02:18;;;;;;;1.15;1.05;;;16.00;99.90;;;;;;7392077;19;20563;-82
2023/08/08 03:04:44;;;;;;;1.50;0.90;;;16.30;99.90;;;;;;7389882;19;20648;-83
2023/08/08 03:07:09;;;;;;;2.03;1.17;;;16.30;99.90;;;;;;7392426;19;20175;-84
2023/08/08 03:09:35;;;;;;;1.00;0.90;;;16.40;99.90;;;;;;7393607;19;20163;-84
2023/08/08 03:12:01;;;;;;;1.88;0.90;;;16.50;99.90;;;;;;7393070;19;20565;-84
2023/08/08 03:14:27;;;;;;;1.90;1.10;;;16.40;99.90;;;;;;7393856;19;20157;-85
2023/08/08 03:16:53;;;;;;;1.88;1.10;;;16.50;99.90;;;;;;7393399;19;20154;-84
2023/08/08 03:19:18;;;;;;;1.50;1.20;;;16.40;99.90;;;;;;7389274;19;20135;-83
2023/08/08 03:21:44;;;;;;;2.58;1.05;;;16.40;99.90;;;;;;7394623;19;20165;-80
2023/08/08 03:24:10;;;;;;;1.10;0.90;;;16.40;99.90;;;;;;7393352;19;20152;-85
2023/08/08 03:26:35;;;;;;;1.33;0.85;;;16.10;99.90;;;;;;7392152;19;20143;-82
2023/08/08 03:29:01;;;;;;;1.75;1.10;;;16.20;99.90;;;;;;7390801;19;20143;-83
2023/08/08 03:31:27;;;;;;;1.30;0.90;;;16.20;99.90;;;;;;7392266;19;20154;-84
2023/08/08 03:33:53;;;;;;;3.10;1.60;;;16.20;99.90;;;;;;7391095;19;20149;-83
2023/08/08 03:36:18;;;;;;;1.58;1.15;;;16.20;99.90;;;;;;7392179;19;20147;-85
2023/08/08 03:38:45;;;;;;;2.15;1.10;;;15.90;99.90;;;;;;7389697;19;20139;-81
2023/08/08 03:41:12;;;;;;;2.00;1.10;;;15.80;99.90;;;;;;7392985;19;20138;-82
2023/08/08 03:43:39;;;;;;;1.65;1.10;;;15.90;99.90;;;;;;7390772;19;20138;-83
2023/08/08 03:46:04;;;;;;;2.05;1.00;;;15.90;99.90;;;;;;7390027;19;20622;-82
2023/08/08 03:48:30;;;;;;;1.58;0.82;;;15.90;99.90;;;;;;7390637;19;20138;-84
2023/08/08 03:50:56;;;;;;;1.10;1.00;;;15.80;99.90;;;;;;7390457;19;20135;-82
2023/08/08 03:53:22;;;;;;;1.67;1.00;;;15.70;99.90;;;;;;7393469;19;20142;-84
2023/08/08 03:55:47;;;;;;;1.23;1.10;;;15.70;99.90;;;;;;7390800;19;20146;-83
2023/08/08 03:58:13;;;;;;;1.85;1.10;;;15.90;99.90;;;;;;7392812;19;20131;-83
2023/08/08 04:00:45;;;;;;;2.03;1.30;;;15.90;99.90;;;;;;7390653;19;20138;-83
2023/08/08 04:03:15;;;;;;;1.60;1.10;;;15.90;99.90;;;;;;7389701;19;20189;-82
2023/08/08 04:05:46;;;;;;;1.88;0.95;;;16.20;99.90;;;;;;7391149;19;20257;-81
2023/08/08 04:08:12;;;;;;;0.88;0.80;;;16.20;99.90;;;;;;7390649;19;20142;-83
2023/08/08 04:10:37;;;;;;;1.25;0.98;;;16.20;99.90;;;;;;7389935;19;20175;-83
2023/08/08 04:13:03;;;;;;;1.98;1.02;;;16.10;99.90;;;;;;7391015;19;20206;-82
2023/08/08 04:15:29;;;;;;;1.50;0.80;;;16.10;99.90;;;;;;7393672;19;20476;-83
2023/08/08 04:17:55;;;;;;;2.10;1.30;;;16.00;99.90;;;;;;7393057;19;20134;-83
2023/08/08 04:20:20;;;;;;;1.85;1.40;;;16.10;99.90;;;;;;7385748;19;20138;-84
2023/08/08 04:22:46;;;;;;;1.92;1.10;;;16.00;99.90;;;;;;7390612;19;20150;-81
2023/08/08 04:25:12;;;;;;;3.17;0.90;;;15.80;99.90;;;;;;7389310;19;20123;-83
2023/08/08 04:27:38;;;;;;;1.77;1.10;;;15.90;99.90;;;;;;7389848;19;20122;-83
2023/08/08 04:30:04;;;;;;;1.60;1.30;;;15.90;99.90;;;;;;7389812;19;20553;-83
2023/08/08 04:32:30;;;;;;;1.52;1.10;;;15.90;99.90;;;;;;7389898;19;20130;-83
2023/08/08 04:34:56;;;;;;;1.73;1.63;;;16.00;99.90;;;;;;7388362;19;20145;-83
2023/08/08 04:37:21;;;;;;;3.10;1.50;;;16.10;99.90;;;;;;7389573;19;20302;-83
2023/08/08 04:39:47;;;;;;;2.58;1.60;;;16.20;99.90;;;;;;7384966;19;20145;-79
2023/08/08 04:42:13;;;;;;;5.93;1.50;;;16.30;99.90;;;;;;7391262;19;20133;-83
2023/08/08 04:44:41;;;;;;;2.42;1.25;;;16.30;99.90;;;;;;7388374;19;20137;-83
2023/08/08 04:47:07;;;;;;;4.85;1.70;;;16.40;99.90;;;;;;7393075;19;20242;-82
2023/08/08 04:49:33;;;;;;;2.03;1.17;;;16.50;99.90;;;;;;7390794;19;20149;-81
2023/08/08 04:51:58;;;;;;;1.73;1.08;;;16.20;99.90;;;;;;7389685;19;20134;-84
2023/08/08 04:54:24;;;;;;;1.50;0.90;;;16.20;99.90;;;;;;7386942;19;20145;-83
2023/08/08 04:56:50;;;;;;;1.30;1.20;;;16.00;99.90;;;;;;7388387;19;20203;-83
2023/08/08 04:59:15;;;;;;;1.25;1.00;;;16.00;99.90;;;;;;7385673;19;20233;-84
2023/08/08 05:01:41;;;;;;;2.08;1.30;;;16.10;99.90;;;;;;7388433;19;20135;-81
2023/08/08 05:04:07;;;;;;;1.70;1.05;;;16.30;99.90;;;;;;7388607;19;20179;-82
2023/08/08 05:06:32;;;;;;;2.10;1.00;;;16.20;99.90;;;;;;7390229;19;20148;-83
2023/08/08 05:08:58;;;;;;;2.72;1.27;;;16.10;99.90;;;;;;7390644;19;20142;-83
2023/08/08 05:11:24;;;;;;;1.90;1.05;;;16.10;99.90;;;;;;7390982;19;20145;-81
2023/08/08 05:13:49;;;;;;;2.03;0.93;;;16.30;99.90;;;;;;7390919;19;20157;-81
2023/08/08 05:16:15;;;;;;;1.98;1.45;;;16.40;99.90;;;;;;7388612;19;20688;-82
2023/08/08 05:18:44;;;;;;;4.72;2.10;;;16.50;99.90;;;;;;7387702;19;20138;-83
2023/08/08 05:21:09;;;;;;;2.83;1.60;;;16.60;99.90;;;;;;7389124;19;20130;-80
2023/08/08 05:23:35;;;;;;;3.30;1.20;;;16.40;99.90;;;;;;7388082;19;20618;-83
2023/08/08 05:26:01;;;;;;;2.00;1.30;;;16.70;99.90;;;;;;7388846;19;20134;-81
2023/08/08 05:28:27;;;;;;;5.10;2.15;;;16.70;99.90;;;;;;7388143;19;20130;-79
2023/08/08 05:30:53;;;;;;;3.40;1.92;;;16.80;99.90;;;;;;7389857;19;20131;-82
2023/08/08 05:33:18;;;;;;;3.08;1.92;;;16.70;99.90;;;;;;7386275;19;20459;-83
2023/08/08 05:35:44;;;;;;;3.35;1.80;;;16.80;99.90;;;;;;7389237;19;20154;-82
2023/08/08 05:38:10;;;;;;;3.72;1.50;;;16.70;99.90;;;;;;7388600;19;20143;-85
2023/08/08 05:40:36;;;;;;;3.83;2.00;;;16.70;99.90;;;;;;7387369;19;20151;-81
2023/08/08 05:43:05;;;;;;;2.03;1.13;;;16.50;99.90;;;;;;7386651;19;20153;-81
2023/08/08 05:45:31;;;;;;;1.85;1.15;;;16.70;99.90;;;;;;7387448;19;20150;-83
2023/08/08 05:47:59;;;;;;;2.15;1.25;;;16.60;99.90;;;;;;7387273;19;20141;-82
2023/08/08 05:50:25;;;;;;;4.20;1.20;;;16.70;99.90;;;;;;7386922;19;20153;-82
2023/08/08 05:52:51;;;;;;;1.55;1.20;;;16.60;99.90;;;;;;7385496;19;20142;-82
2023/08/08 05:55:16;;;;;;;2.30;1.35;;;16.60;99.90;;;;;;7387397;19;20232;-82
2023/08/08 05:57:42;;;;;;;2.20;1.00;;;16.60;99.90;;;;;;7388410;19;20142;-83
2023/08/08 06:00:11;;;;;;;4.95;1.40;;;16.70;99.90;;;;;;7387025;19;20131;-81
2023/08/08 06:02:37;;;;;;;4.40;1.00;;;16.80;99.90;;;;;;7389227;19;20804;-83
2023/08/08 06:05:04;;;;;;;2.28;0.90;;;16.60;99.90;;;;;;7387891;19;20143;-84
2023/08/08 06:07:29;;;;;;;4.50;1.50;;;16.70;99.90;;;;;;7387778;19;20479;-83
2023/08/08 06:09:55;;;;;;;2.17;1.10;;;16.70;99.90;;;;;;7388398;19;20138;-82
2023/08/08 06:12:21;;;;;;;2.60;1.30;;;16.70;99.90;;;;;;7392413;19;20135;-82
2023/08/08 06:14:48;;;;;;;3.40;2.95;;;16.70;99.90;;;;;;7394666;19;20154;-82
2023/08/08 06:17:14;;;;;;;2.30;1.92;;;16.70;99.90;;;;;;7393600;19;20153;-84
2023/08/08 06:19:40;;;;;;;3.28;1.85;;;16.90;99.90;;;;;;7392032;19;20151;-84
2023/08/08 06:22:06;;;;;;;3.88;2.50;;;16.90;99.90;;;;;;7393132;19;20135;-82
2023/08/08 06:24:32;;;;;;;3.22;2.80;;;17.00;99.90;;;;;;7395001;19;20131;-80
2023/08/08 06:26:58;;;;;;;1.08;0.95;;;17.10;99.90;;;;;;7392178;19;20473;-83
2023/08/08 06:29:23;;;;;;;3.80;1.85;;;17.10;99.90;;;;;;7398245;19;20126;-84
2023/08/08 06:31:49;;;;;;;2.05;1.38;;;17.20;99.90;;;;;;7393467;19;20142;-84
2023/08/08 06:34:15;;;;;;;2.85;1.35;;;18.00;99.90;;;;;;7390208;19;20549;-83
2023/08/08 06:36:41;;;;;;;2.08;1.00;;;19.30;99.90;;;;;;7391164;19;20162;-82
2023/08/08 06:39:07;;;;;;;4.93;2.05;;;21.00;99.90;;;;;;7394010;19;20232;-83
2023/08/08 06:41:32;;;;;;;6.55;2.30;;;21.80;99.90;;;;;;7393993;19;20134;-81
2023/08/08 06:43:58;;;;;;;2.42;1.08;;;21.70;99.90;;;;;;7395375;19;20139;-81
2023/08/08 06:46:24;;;;;;;5.10;1.75;;;21.50;99.90;;;;;;7391492;19;20138;-81
2023/08/08 06:48:52;;;;;;;0.90;0.80;;;22.60;99.90;;;;;;7393669;19;20135;-84
2023/08/08 06:51:18;;;;;;;1.88;1.10;;;22.50;99.90;;;;;;7391935;19;20131;-81
2023/08/08 06:53:44;;;;;;;3.17;1.20;;;22.20;99.90;;;;;;7393643;19;20666;-80
2023/08/08 06:56:10;;;;;;;1.70;0.90;;;22.80;99.90;;;;;;7392881;19;20142;-81
2023/08/08 06:58:36;;;;;;;2.95;1.02;;;22.60;99.90;;;;;;7392473;19;20150;-82
2023/08/08 07:01:03;;;;;;;1.70;1.10;;;23.40;99.90;;;;;;7395283;19;20191;-80
2023/08/08 07:03:28;;;;;;;2.83;1.85;;;23.80;99.90;;;;;;7392571;19;20606;-82
2023/08/08 07:05:54;;;;;;;3.35;1.63;;;23.60;99.90;;;;;;7393445;19;20153;-81
2023/08/08 07:08:20;;;;;;;6.93;3.03;;;23.40;99.90;;;;;;7391169;19;20127;-80
2023/08/08 07:10:46;;;;;;;2.45;1.20;;;23.10;99.90;;;;;;7389693;19;20138;-81
2023/08/08 07:13:11;;;;;;;1.17;0.88;;;23.20;99.90;;;;;;7394355;19;20134;-82
2023/08/08 07:15:38;;;;;;;1.95;1.05;;;23.70;99.90;;;;;;7391540;19;20131;-81
2023/08/08 07:18:04;;;;;;;2.40;1.17;;;24.10;99.90;;;;;;7391353;19;20134;-80
2023/08/08 07:20:32;;;;;;;3.17;1.52;;;23.90;99.90;;;;;;7388857;19;20126;-80
2023/08/08 07:22:59;;;;;;;5.35;1.63;;;23.80;99.90;;;;;;7399233;19;20138;-81
2023/08/08 07:25:25;;;;;;;4.18;1.50;;;23.70;99.90;;;;;;7390911;19;20489;-80
2023/08/08 07:27:53;;;;;;;3.40;1.45;;;23.60;99.90;;;;;;7388756;19;20135;-79
2023/08/08 07:30:20;;;;;;;1.05;0.80;;;23.00;99.90;;;;;;7391423;19;20725;-81
2023/08/08 07:32:46;;;;;;;1.20;0.90;;;23.10;99.90;;;;;;7392343;19;20134;-81
2023/08/08 07:35:12;;;;;;;3.83;1.35;;;23.40;99.90;;;;;;7391290;19;20159;-82
2023/08/08 07:37:38;;;;;;;1.75;0.85;;;23.00;99.90;;;;;;7391301;19;20579;-81
2023/08/08 07:40:20;;;;;;;1.10;0.90;;;23.10;99.90;;;;;;7390922;19;20309;-83
2023/08/08 07:42:46;;;;;;;1.42;1.00;;;23.90;99.90;;;;;;7389902;19;20134;-84
2023/08/08 07:45:12;;;;;;;2.83;0.90;;;24.00;99.90;;;;;;7393976;19;20160;-81
2023/08/08 07:47:38;;;;;;;2.30;1.25;;;24.70;99.90;;;;;;7391456;19;20570;-80
2023/08/08 07:50:06;;;;;;;5.65;1.35;;;25.00;99.90;;;;;;7390950;19;20217;-78
2023/08/08 07:52:33;;;;;;;1.52;0.80;;;25.00;99.90;;;;;;7394833;19;20134;-79
2023/08/08 07:54:59;;;;;;;0.88;0.80;;;25.30;99.90;;;;;;7392985;19;20146;-77
2023/08/08 07:57:27;;;;;;;1.27;1.00;;;24.70;99.90;;;;;;7391124;19;20525;-81
2023/08/08 07:59:53;;;;;;;3.15;1.40;;;24.00;99.90;;;;;;7392139;19;20214;-83
2023/08/08 08:02:18;;;;;;;3.35;1.10;;;23.50;99.90;;;;;;7389934;19;20143;-82
2023/08/08 08:04:46;;;;;;;3.92;1.42;;;22.90;99.90;;;;;;7389283;19;20558;-84
2023/08/08 08:07:11;;;;;;;4.00;1.27;;;22.70;99.90;;;;;;7380535;19;20190;-81
2023/08/08 08:09:37;;;;;;;1.92;1.15;;;22.50;99.90;;;;;;7388274;19;20546;-80
2023/08/08 08:12:03;;;;;;;1.15;0.82;;;22.20;99.90;;;;;;7390662;19;20202;-82
2023/08/08 08:14:29;;;;;;;4.93;3.58;;;21.80;99.90;;;;;;7389240;19;20171;-81
2023/08/08 08:16:55;;;;;;;1.10;0.77;;;21.60;99.90;;;;;;7390612;19;20548;-81
2023/08/08 08:19:27;;;;;;;3.28;2.63;;;21.50;99.90;;;;;;7389506;19;20171;-82
2023/08/08 08:21:52;;;;;;;2.63;1.83;;;21.80;99.90;;;;;;7390585;19;20138;-82
2023/08/08 08:24:18;;;;;;;1.85;1.08;;;21.80;99.90;;;;;;7388962;19;20480;-81
2023/08/08 08:26:44;;;;;;;1.60;0.80;;;22.00;99.90;;;;;;7390702;19;20166;-81
2023/08/08 08:29:09;;;;;;;1.15;0.85;;;22.10;99.90;;;;;;7391341;19;20542;-81
2023/08/08 08:31:38;;;;;;;3.35;1.63;;;22.00;99.90;;;;;;7390936;19;20154;-79
2023/08/08 08:34:04;;;;;;;1.48;1.10;;;22.00;99.90;;;;;;7389380;19;20157;-81
2023/08/08 08:36:30;;;;;;;2.22;1.00;;;21.70;99.90;;;;;;7390057;19;20492;-78
2023/08/08 08:38:56;;;;;;;1.30;0.90;;;21.80;99.90;;;;;;7389589;19;20181;-83
2023/08/08 08:41:27;;;;;;;3.85;1.00;;;21.30;99.90;;;;;;7391234;19;20134;-82
2023/08/08 08:43:57;;;;;;;2.75;1.20;;;21.30;99.90;;;;;;7390517;19;20165;-82
2023/08/08 08:46:26;;;;;;;7.10;4.60;;;21.50;99.90;;;;;;7391252;19;20143;-84
2023/08/08 08:49:04;;;;;;;2.58;1.20;;;21.90;99.90;;;;;;7390108;19;20158;-79
2023/08/08 08:51:30;;;;;;;2.15;1.20;;;22.10;99.90;;;;;;7389613;19;20145;-81
2023/08/08 08:53:58;;;;;;;3.55;1.48;;;22.10;99.90;;;;;;7389799;19;20154;-79
2023/08/08 08:56:24;;;;;;;1.60;1.10;;;21.90;99.90;;;;;;7389934;19;20138;-83
2023/08/08 08:58:51;;;;;;;2.72;1.42;;;21.80;99.90;;;;;;7391872;19;20158;-83
2023/08/08 09:01:18;;;;;;;1.65;1.25;;;22.10;99.90;;;;;;7392104;19;20145;-80
2023/08/08 09:03:45;;;;;;;3.85;1.95;;;22.30;99.90;;;;;;7392370;19;20170;-79
2023/08/08 09:06:12;;;;;;;6.20;1.88;;;22.60;99.90;;;;;;7388870;19;20175;-83
2023/08/08 09:08:38;;;;;;;5.40;2.55;;;22.60;99.90;;;;;;7387847;19;20154;-84
2023/08/08 09:11:03;;;;;;;5.72;2.65;;;22.70;99.90;;;;;;7387727;19;20157;-82
2023/08/08 09:13:41;;;;;;;3.00;1.20;;;22.50;99.90;;;;;;7389211;19;20147;-82
2023/08/08 09:16:08;;;;;;;2.75;1.33;;;22.10;99.90;;;;;;7390359;19;20155;-81
2023/08/08 09:18:38;;;;;;;6.57;2.90;;;22.10;99.90;;;;;;7386868;19;20678;-83
2023/08/08 09:21:04;;;;;;;3.13;1.70;;;22.30;99.90;;;;;;7390448;19;20154;-83
2023/08/08 09:23:30;;;;;;;2.33;1.65;;;22.60;99.90;;;;;;7387919;19;20205;-82
2023/08/08 09:25:56;;;;;;;3.95;1.00;;;22.60;99.90;;;;;;7390710;19;20150;-81
2023/08/08 09:28:22;;;;;;;3.35;0.93;;;22.50;99.90;;;;;;7391943;19;20229;-84
2023/08/08 09:30:48;;;;;;;1.90;1.23;;;22.60;99.90;;;;;;7389195;19;20647;-78
2023/08/08 09:33:14;;;;;;;1.52;1.00;;;22.50;99.90;;;;;;7393075;19;20239;-82
2023/08/08 09:35:40;;;;;;;2.35;1.40;;;22.40;99.90;;;;;;7391205;19;20158;-84
2023/08/08 09:38:06;;;;;;;1.48;1.10;;;22.30;99.90;;;;;;7387056;19;21309;-83
2023/08/08 09:40:31;;;;;;;1.25;1.00;;;22.50;99.90;;;;;;7385281;19;20165;-82
2023/08/08 09:43:00;;;;;;;2.50;1.45;;;22.70;99.90;;;;;;7387289;19;20153;-83
2023/08/08 09:45:26;;;;;;;2.03;1.15;;;22.90;99.90;;;;;;7391818;19;20160;-80
2023/08/08 09:47:52;;;;;;;2.67;1.02;;;22.90;99.90;;;;;;7392725;19;20151;-79
2023/08/08 09:50:19;;;;;;;2.97;1.70;;;22.80;99.90;;;;;;7391629;19;20150;-80
2023/08/08 09:52:46;;;;;;;1.77;1.40;;;22.60;99.90;;;;;;7395480;19;20131;-82
2023/08/08 09:55:14;;;;;;;2.50;0.95;;;22.50;99.90;;;;;;7397301;19;20135;-81
2023/08/08 09:57:40;;;;;;;2.05;0.98;;;22.40;99.90;;;;;;7394803;19;20161;-80
2023/08/08 10:00:15;;;;;;;5.13;3.38;;;22.40;99.90;;;;;;7395713;19;20147;-82
2023/08/08 10:02:44;;;;;;;1.98;1.30;;;22.50;99.90;;;;;;7395624;19;20640;-81
2023/08/08 10:05:10;;;;;;;4.05;2.00;;;22.80;99.90;;;;;;7395907;19;20221;-81
2023/08/08 10:07:36;;;;;;;2.08;1.00;;;22.90;99.90;;;;;;7392481;19;20130;-81
2023/08/08 10:10:03;;;;;;;2.90;1.38;;;23.00;99.90;;;;;;7394918;19;20166;-83
2023/08/08 10:12:30;;;;;;;2.08;1.20;;;23.10;99.90;;;;;;7393261;19;20137;-82
2023/08/08 10:14:58;;;;;;;3.25;1.50;;;23.00;99.90;;;;;;7395036;19;20448;-82
2023/08/08 10:17:24;;;;;;;2.78;1.20;;;22.90;99.90;;;;;;7395715;19;20135;-81
2023/08/08 10:20:04;;;;;;;1.55;1.00;;;22.80;99.90;;;;;;7391865;19;20137;-77
2023/08/08 10:22:30;;;;;;;2.70;1.42;;;23.00;99.90;;;;;;7395680;19;20135;-81
2023/08/08 10:24:56;;;;;;;2.72;1.27;;;23.00;99.90;;;;;;7395636;19;20142;-84
2023/08/08 10:27:33;;;;;;;1.85;1.25;;;22.90;98.40;;;;;;7395518;19;20609;-83
2023/08/08 10:30:07;;;;;;;3.05;1.42;;;23.10;97.50;;;;;;7396253;19;20142;-84
2023/08/08 10:32:43;;;;;;;1.55;1.38;;;22.90;97.30;;;;;;7394252;19;20155;-84
2023/08/08 10:35:11;;;;;;;2.55;1.00;;;23.00;97.10;;;;;;7393783;19;20292;-81
2023/08/08 10:37:38;;;;;;;3.92;0.93;;;23.10;97.60;;;;;;7399247;19;20147;-78
2023/08/08 10:40:07;;;;;;;2.58;1.20;;;23.30;96.90;;;;;;7391614;19;21189;-73
2023/08/08 10:42:42;;;;;;;2.85;1.45;;;23.40;97.10;;;;;;7393989;19;20142;-74
2023/08/08 10:45:14;;;;;;;3.10;1.30;;;23.50;96.70;;;;;;7395381;19;20147;-75
2023/08/08 10:47:42;;;;;;;3.53;1.30;;;23.60;96.50;;;;;;7394268;19;20150;-76
2023/08/08 10:50:13;;;;;;;1.50;0.98;;;23.20;94.80;;;;;;7396714;19;20149;-74
2023/08/08 10:52:52;;;;;;;2.15;1.02;;;23.10;95.00;;;;;;7392552;19;20138;-74
2023/08/08 10:55:26;;;;;;;1.73;0.95;;;23.10;94.90;;;;;;7392989;19;20243;-77
2023/08/08 10:58:15;;;;;;;2.67;1.27;;;22.90;94.60;;;;;;7392034;19;20141;-75
2023/08/08 11:00:41;;;;;;;2.55;1.50;;;22.80;94.00;;;;;;7390452;19;20143;-75
2023/08/08 11:03:08;;;;;;;2.00;1.05;;;23.00;94.70;;;;;;7392554;19;20174;-74
2023/08/08 11:05:37;;;;;;;2.72;0.85;;;23.00;94.30;;;;;;7394213;19;20153;-75
2023/08/08 11:08:04;;;;;;;1.90;1.00;;;23.10;94.20;;;;;;7391588;19;20127;-75
2023/08/08 11:10:41;;;;;;;1.98;1.38;;;23.20;93.60;;;;;;7393053;19;20134;-75
2023/08/08 11:13:08;;;;;;;1.70;0.80;;;23.30;93.80;;;;;;7393627;19;20146;-74
2023/08/08 11:15:36;;;;;;;1.95;1.15;;;23.20;94.40;;;;;;7392341;19;20590;-74
2023/08/08 11:18:03;;;;;;;2.58;1.42;;;23.30;94.70;;;;;;7392122;19;20138;-74
2023/08/08 11:20:34;;;;;;;1.10;1.00;;;23.10;93.90;;;;;;7390669;19;20134;-75
2023/08/08 11:23:00;;;;;;;4.35;1.20;;;22.90;94.40;;;;;;7393186;19;20138;-75
2023/08/08 11:25:27;;;;;;;4.70;1.30;;;22.80;94.60;;;;;;7392889;19;20146;-76
2023/08/08 11:27:53;;;;;;;3.25;1.25;;;22.80;94.90;;;;;;7395450;19;20141;-76
2023/08/08 11:30:21;;;;;;;2.15;1.17;;;22.80;95.00;;;;;;7393031;19;20150;-74
2023/08/08 11:32:48;;;;;;;1.85;0.98;;;22.90;95.50;;;;;;7394699;19;20205;-75
2023/08/08 11:35:23;;;;;;;2.58;1.08;;;22.90;94.40;;;;;;7393332;19;20146;-75
2023/08/08 11:37:52;;;;;;;1.30;0.90;;;23.00;93.70;;;;;;7393705;19;20133;-75
2023/08/08 11:40:19;;;;;;;1.58;1.00;;;23.20;93.60;;;;;;7390020;19;20142;-76
2023/08/08 11:42:46;;;;;;;1.95;1.05;;;23.50;93.30;;;;;;7392228;19;20161;-75
2023/08/08 11:45:13;;;;;;;2.38;0.90;;;23.50;91.90;;;;;;7394961;19;20143;-77
2023/08/08 11:47:42;;;;;;;2.85;1.30;;;23.20;92.40;;;;;;7391469;19;20234;-75
2023/08/08 11:50:10;;;;;;;2.30;1.33;;;23.30;92.10;;;;;;7392191;19;20145;-76
2023/08/08 11:52:41;;;;;;;1.73;1.00;;;23.10;92.70;;;;;;7394682;19;20142;-77
2023/08/08 11:55:10;;;;;;;2.65;1.58;;;22.80;93.40;;;;;;7393677;19;20143;-76
2023/08/08 11:57:37;;;;;;;2.35;1.60;;;22.70;94.20;;;;;;7391429;19;20143;-76
2023/08/08 12:00:13;;;;;;;1.73;1.38;;;22.80;94.60;;;;;;7386893;19;20176;-75
2023/08/08 12:02:43;;;;;;;2.88;1.10;;;23.10;94.50;;;;;;7384009;19;20149;-75
2023/08/08 12:05:11;;;;;;;1.35;0.85;;;23.20;92.70;;;;;;7390990;19;20147;-76
2023/08/08 12:07:40;;;;;;;1.65;0.90;;;23.10;92.80;;;;;;7390425;19;20181;-76
2023/08/08 12:10:13;;;;;;;1.67;1.05;;;23.10;92.80;;;;;;7391292;19;20143;-76
2023/08/08 12:12:39;;;;;;;2.38;1.67;;;23.30;92.70;;;;;;7389411;19;20139;-76
2023/08/08 12:15:09;;;;;;;4.22;1.67;;;23.60;92.50;;;;;;7389487;19;20491;-74
2023/08/08 12:17:36;;;;;;;0.93;0.70;;;23.50;92.60;;;;;;7390460;19;20159;-76
2023/08/08 12:20:07;;;;;;;1.90;0.68;;;23.30;92.50;;;;;;7389262;19;20154;-76
2023/08/08 12:22:33;;;;;;;2.00;0.70;;;23.20;92.80;;;;;;7391065;19;20149;-76
2023/08/08 12:25:00;;;;;;;2.00;1.80;;;23.30;92.40;;;;;;7390288;19;20131;-75
2023/08/08 12:27:25;;;;;;;3.78;3.05;;;23.50;92.50;;;;;;7390436;19;20591;-76
2023/08/08 12:29:51;;;;;;;3.63;1.38;;;23.50;92.10;;;;;;7391353;19;20135;-75
2023/08/08 12:32:20;;;;;;;3.00;1.67;;;23.60;92.00;;;;;;7392278;19;20135;-75
2023/08/08 12:34:45;;;;;;;2.25;1.23;;;23.60;91.00;;;;;;7389564;19;20257;-75
2023/08/08 12:37:11;;;;;;;1.70;0.93;;;23.30;91.70;;;;;;7391141;19;20130;-75
2023/08/08 12:39:40;;;;;;;2.28;1.13;;;22.90;92.10;;;;;;7387356;19;20298;-75
2023/08/08 12:42:06;;;;;;;1.65;1.40;;;23.00;93.00;;;;;;7391856;19;20147;-75
2023/08/08 12:44:31;;;;;;;2.25;1.45;;;23.00;93.30;;;;;;7388406;19;20564;-75
2023/08/08 12:46:57;;;;;;;2.17;1.20;;;23.10;93.60;;;;;;7389326;19;20521;-76